sensor_id;sensor_type;location;lat;lon;timestamp;pressure;altitude;pressure_sealevel;temperature;humidity
32320;BME280;19080;51.750;5.888;2024-03-25T00:00:38;100540.97;;;5.06;100.00
32320;BME280;19080;51.750;5.888;2024-03-25T00:03:04;100524.09;;;5.00;100.00
32320;BME280;19080;51.750;5.888;2024-03-25T00:05:30;100555.06;;;5.08;100.00
32320;BME280;19080;51.750;5.888;2024-03-25T00:07:58;100543.38;;;4.99;100.00
32320;BME280;19080;51.750;5.888;2024-03-25T00:10:24;100562.03;;;5.06;100.00
32320;BME280;19080;51.750;5.888;2024-03-25T00:12:50;100553.03;;;5.00;100.00
32320;BME280;19080;51.750;5.888;2024-03-25T00:15:20;100519.94;;;4.79;100.00
32320;BME280;19080;51.750;5.888;2024-03-25T00:17:47;100527.78;;;4.78;100.00
32320;BME280;19080;51.750;5.888;2024-03-25T00:20:13;100549.13;;;4.87;100.00
32320;BME280;19080;51.750;5.888;2024-03-25T00:22:41;100541.03;;;4.81;100.00
32320;BME280;19080;51.750;5.888;2024-03-25T00:25:07;100540.28;;;4.85;100.00
32320;BME280;19080;51.750;5.888;2024-03-25T00:27:34;100523.16;;;4.71;100.00
32320;BME280;19080;51.750;5.888;2024-03-25T00:30:00;100544.19;;;4.71;100.00
32320;BME280;19080;51.750;5.888;2024-03-25T00:32:25;100540.59;;;4.69;100.00
32320;BME280;19080;51.750;5.888;2024-03-25T00:34:51;100552.28;;;4.77;100.00
32320;BME280;19080;51.750;5.888;2024-03-25T00:37:17;100540.66;;;4.70;100.00
32320;BME280;19080;51.750;5.888;2024-03-25T00:39:43;100536.97;;;4.65;100.00
32320;BME280;19080;51.750;5.888;2024-03-25T00:42:09;100545.75;;;4.66;100.00
32320;BME280;19080;51.750;5.888;2024-03-25T00:44:34;100539.41;;;4.59;100.00
32320;BME280;19080;51.750;5.888;2024-03-25T00:47:00;100500.97;;;4.37;100.00
32320;BME280;19080;51.750;5.888;2024-03-25T00:49:26;100544.41;;;4.51;100.00
32320;BME280;19080;51.750;5.888;2024-03-25T00:51:52;100535.50;;;4.48;100.00
32320;BME280;19080;51.750;5.888;2024-03-25T00:54:17;100509.66;;;4.35;100.00
32320;BME280;19080;51.750;5.888;2024-03-25T00:56:43;100496.03;;;4.21;100.00
32320;BME280;19080;51.750;5.888;2024-03-25T00:59:09;100529.88;;;4.37;100.00
32320;BME280;19080;51.750;5.888;2024-03-25T01:01:35;100536.59;;;4.29;100.00
32320;BME280;19080;51.750;5.888;2024-03-25T01:04:04;100540.69;;;4.21;100.00
32320;BME280;19080;51.750;5.888;2024-03-25T01:06:30;100543.44;;;4.24;100.00
32320;BME280;19080;51.750;5.888;2024-03-25T01:08:56;100512.94;;;4.04;100.00
32320;BME280;19080;51.750;5.888;2024-03-25T01:11:22;100537.84;;;4.15;100.00
32320;BME280;19080;51.750;5.888;2024-03-25T01:13:48;100534.88;;;4.06;100.00
32320;BME280;19080;51.750;5.888;2024-03-25T01:16:14;100533.38;;;4.12;100.00
32320;BME280;19080;51.750;5.888;2024-03-25T01:18:40;100536.78;;;4.10;100.00
32320;BME280;19080;51.750;5.888;2024-03-25T01:21:06;100540.47;;;4.15;100.00
32320;BME280;19080;51.750;5.888;2024-03-25T01:23:32;100550.75;;;4.09;100.00
32320;BME280;19080;51.750;5.888;2024-03-25T01:25:57;100538.41;;;4.06;100.00
32320;BME280;19080;51.750;5.888;2024-03-25T01:28:23;100545.22;;;4.01;100.00
32320;BME280;19080;51.750;5.888;2024-03-25T01:30:49;100553.88;;;3.99;100.00
32320;BME280;19080;51.750;5.888;2024-03-25T01:33:15;100526.22;;;3.84;100.00
32320;BME280;19080;51.750;5.888;2024-03-25T01:35:41;100551.38;;;4.02;100.00
32320;BME280;19080;51.750;5.888;2024-03-25T01:38:08;100565.44;;;4.04;100.00
32320;BME280;19080;51.750;5.888;2024-03-25T01:40:34;100550.47;;;4.01;100.00
32320;BME280;19080;51.750;5.888;2024-03-25T01:43:02;100552.53;;;4.10;100.00
32320;BME280;19080;51.750;5.888;2024-03-25T01:45:33;100522.25;;;3.96;100.00
32320;BME280;19080;51.750;5.888;2024-03-25T01:48:02;100552.94;;;4.20;100.00
32320;BME280;19080;51.750;5.888;2024-03-25T01:50:29;100539.41;;;4.10;100.00
32320;BME280;19080;51.750;5.888;2024-03-25T01:52:56;100544.44;;;4.04;100.00
32320;BME280;19080;51.750;5.888;2024-03-25T01:55:26;100550.53;;;4.03;100.00
32320;BME280;19080;51.750;5.888;2024-03-25T01:57:53;100526.78;;;4.00;100.00
32320;BME280;19080;51.750;5.888;2024-03-25T02:00:19;100548.56;;;4.21;100.00
32320;BME280;19080;51.750;5.888;2024-03-25T02:02:46;100550.47;;;4.25;100.00
32320;BME280;19080;51.750;5.888;2024-03-25T02:05:17;100566.03;;;4.44;100.00
32320;BME280;19080;51.750;5.888;2024-03-25T02:07:43;100551.59;;;4.57;100.00
32320;BME280;19080;51.750;5.888;2024-03-25T02:10:09;100547.72;;;4.71;100.00
32320;BME280;19080;51.750;5.888;2024-03-25T02:12:37;100563.16;;;4.87;100.00
32320;BME280;19080;51.750;5.888;2024-03-25T02:15:07;100572.34;;;5.00;100.00
32320;BME280;19080;51.750;5.888;2024-03-25T02:17:34;100561.94;;;5.03;100.00
32320;BME280;19080;51.750;5.888;2024-03-25T02:20:01;100551.34;;;5.02;100.00
32320;BME280;19080;51.750;5.888;2024-03-25T02:22:29;100549.72;;;5.05;100.00
32320;BME280;19080;51.750;5.888;2024-03-25T02:24:56;100545.41;;;5.07;100.00
32320;BME280;19080;51.750;5.888;2024-03-25T02:27:24;100555.19;;;5.11;100.00
32320;BME280;19080;51.750;5.888;2024-03-25T02:29:50;100547.19;;;5.08;100.00
32320;BME280;19080;51.750;5.888;2024-03-25T02:32:16;100534.31;;;4.90;100.00
32320;BME280;19080;51.750;5.888;2024-03-25T02:34:51;100530.69;;;4.87;100.00
32320;BME280;19080;51.750;5.888;2024-03-25T02:37:18;100566.78;;;4.91;100.00
32320;BME280;19080;51.750;5.888;2024-03-25T02:39:45;100548.59;;;4.72;100.00
32320;BME280;19080;51.750;5.888;2024-03-25T02:42:10;100544.75;;;4.62;100.00
32320;BME280;19080;51.750;5.888;2024-03-25T02:44:37;100552.69;;;4.64;100.00
32320;BME280;19080;51.750;5.888;2024-03-25T02:47:03;100564.53;;;4.51;100.00
32320;BME280;19080;51.750;5.888;2024-03-25T02:49:30;100571.25;;;4.43;100.00
32320;BME280;19080;51.750;5.888;2024-03-25T02:51:56;100555.22;;;4.35;100.00
32320;BME280;19080;51.750;5.888;2024-03-25T02:54:22;100556.78;;;4.30;100.00
32320;BME280;19080;51.750;5.888;2024-03-25T02:56:47;100560.97;;;4.25;100.00
32320;BME280;19080;51.750;5.888;2024-03-25T02:59:13;100554.44;;;4.14;100.00
32320;BME280;19080;51.750;5.888;2024-03-25T03:01:39;100558.63;;;4.09;100.00
32320;BME280;19080;51.750;5.888;2024-03-25T03:04:04;100557.41;;;3.99;100.00
32320;BME280;19080;51.750;5.888;2024-03-25T03:06:30;100567.00;;;3.99;100.00
32320;BME280;19080;51.750;5.888;2024-03-25T03:08:56;100524.31;;;3.80;100.00
32320;BME280;19080;51.750;5.888;2024-03-25T03:11:22;100538.63;;;3.88;100.00
32320;BME280;19080;51.750;5.888;2024-03-25T03:13:47;100529.34;;;3.74;100.00
32320;BME280;19080;51.750;5.888;2024-03-25T03:16:13;100529.13;;;3.68;100.00
32320;BME280;19080;51.750;5.888;2024-03-25T03:18:39;100548.63;;;3.75;100.00
32320;BME280;19080;51.750;5.888;2024-03-25T03:21:05;100555.00;;;3.81;100.00
32320;BME280;19080;51.750;5.888;2024-03-25T03:23:31;100557.56;;;3.80;100.00
32320;BME280;19080;51.750;5.888;2024-03-25T03:25:57;100530.91;;;3.69;100.00
32320;BME280;19080;51.750;5.888;2024-03-25T03:28:25;100541.97;;;3.84;100.00
32320;BME280;19080;51.750;5.888;2024-03-25T03:30:51;100549.91;;;3.86;100.00
32320;BME280;19080;51.750;5.888;2024-03-25T03:33:17;100550.75;;;3.85;100.00
32320;BME280;19080;51.750;5.888;2024-03-25T03:35:43;100549.78;;;3.83;100.00
32320;BME280;19080;51.750;5.888;2024-03-25T03:38:08;100555.06;;;3.83;100.00
32320;BME280;19080;51.750;5.888;2024-03-25T03:40:34;100536.38;;;3.75;100.00
32320;BME280;19080;51.750;5.888;2024-03-25T03:43:00;100546.66;;;3.69;100.00
32320;BME280;19080;51.750;5.888;2024-03-25T03:45:25;100535.69;;;3.57;100.00
32320;BME280;19080;51.750;5.888;2024-03-25T03:47:51;100552.16;;;3.53;100.00
32320;BME280;19080;51.750;5.888;2024-03-25T03:50:17;100537.66;;;3.39;100.00
32320;BME280;19080;51.750;5.888;2024-03-25T03:52:43;100552.31;;;3.34;100.00
32320;BME280;19080;51.750;5.888;2024-03-25T03:55:08;100543.13;;;3.22;100.00
32320;BME280;19080;51.750;5.888;2024-03-25T03:57:34;100516.69;;;2.96;100.00
32320;BME280;19080;51.750;5.888;2024-03-25T04:00:01;100519.84;;;2.87;100.00
32320;BME280;19080;51.750;5.888;2024-03-25T04:02:27;100532.13;;;2.88;100.00
32320;BME280;19080;51.750;5.888;2024-03-25T04:04:54;100541.38;;;2.80;100.00
32320;BME280;19080;51.750;5.888;2024-03-25T04:07:21;100534.09;;;2.73;100.00
32320;BME280;19080;51.750;5.888;2024-03-25T04:09:54;100547.91;;;2.69;100.00
32320;BME280;19080;51.750;5.888;2024-03-25T04:12:19;100555.69;;;2.67;100.00
32320;BME280;19080;51.750;5.888;2024-03-25T04:14:49;100559.41;;;2.51;100.00
32320;BME280;19080;51.750;5.888;2024-03-25T04:17:21;100526.41;;;2.36;100.00
32320;BME280;19080;51.750;5.888;2024-03-25T04:19:48;100547.38;;;2.36;100.00
32320;BME280;19080;51.750;5.888;2024-03-25T04:22:14;100526.53;;;2.18;100.00
32320;BME280;19080;51.750;5.888;2024-03-25T04:24:40;100555.72;;;2.27;100.00
32320;BME280;19080;51.750;5.888;2024-03-25T04:27:06;100557.44;;;2.26;100.00
32320;BME280;19080;51.750;5.888;2024-03-25T04:29:32;100547.34;;;2.15;100.00
32320;BME280;19080;51.750;5.888;2024-03-25T04:31:57;100543.75;;;2.13;100.00
32320;BME280;19080;51.750;5.888;2024-03-25T04:34:23;100552.97;;;2.24;100.00
32320;BME280;19080;51.750;5.888;2024-03-25T04:36:49;100537.25;;;2.24;100.00
32320;BME280;19080;51.750;5.888;2024-03-25T04:39:15;100535.31;;;2.39;100.00
32320;BME280;19080;51.750;5.888;2024-03-25T04:41:40;100525.28;;;2.50;100.00
32320;BME280;19080;51.750;5.888;2024-03-25T04:44:06;100550.53;;;2.69;100.00
32320;BME280;19080;51.750;5.888;2024-03-25T04:46:32;100554.94;;;2.70;100.00
32320;BME280;19080;51.750;5.888;2024-03-25T04:48:58;100546.25;;;2.71;100.00
32320;BME280;19080;51.750;5.888;2024-03-25T04:51:24;100562.94;;;2.73;100.00
32320;BME280;19080;51.750;5.888;2024-03-25T04:53:49;100554.16;;;2.51;100.00
32320;BME280;19080;51.750;5.888;2024-03-25T04:56:15;100550.44;;;2.46;100.00
32320;BME280;19080;51.750;5.888;2024-03-25T04:58:41;100558.25;;;2.45;100.00
32320;BME280;19080;51.750;5.888;2024-03-25T05:01:07;100556.31;;;2.41;100.00
32320;BME280;19080;51.750;5.888;2024-03-25T05:03:32;100560.66;;;2.40;100.00
32320;BME280;19080;51.750;5.888;2024-03-25T05:05:58;100556.94;;;2.35;100.00
32320;BME280;19080;51.750;5.888;2024-03-25T05:08:24;100559.44;;;2.32;100.00
32320;BME280;19080;51.750;5.888;2024-03-25T05:10:50;100562.63;;;2.25;100.00
32320;BME280;19080;51.750;5.888;2024-03-25T05:13:16;100557.19;;;2.20;100.00
32320;BME280;19080;51.750;5.888;2024-03-25T05:15:52;100556.16;;;2.17;100.00
32320;BME280;19080;51.750;5.888;2024-03-25T05:18:18;100561.47;;;1.99;100.00
32320;BME280;19080;51.750;5.888;2024-03-25T05:20:44;100566.50;;;1.94;100.00
32320;BME280;19080;51.750;5.888;2024-03-25T05:23:10;100560.91;;;1.87;100.00
32320;BME280;19080;51.750;5.888;2024-03-25T05:25:36;100575.78;;;1.88;100.00
32320;BME280;19080;51.750;5.888;2024-03-25T05:28:04;100542.75;;;1.71;100.00
32320;BME280;19080;51.750;5.888;2024-03-25T05:30:30;100582.13;;;1.93;100.00
32320;BME280;19080;51.750;5.888;2024-03-25T05:32:56;100571.94;;;1.99;100.00
32320;BME280;19080;51.750;5.888;2024-03-25T05:35:22;100553.41;;;1.94;100.00
32320;BME280;19080;51.750;5.888;2024-03-25T05:37:47;100592.19;;;2.22;100.00
32320;BME280;19080;51.750;5.888;2024-03-25T05:40:13;100557.66;;;2.12;100.00
32320;BME280;19080;51.750;5.888;2024-03-25T05:42:40;100563.44;;;2.24;100.00
32320;BME280;19080;51.750;5.888;2024-03-25T05:45:06;100585.06;;;2.39;100.00
32320;BME280;19080;51.750;5.888;2024-03-25T05:47:34;100592.63;;;2.52;100.00
32320;BME280;19080;51.750;5.888;2024-03-25T05:50:00;100588.47;;;2.57;100.00
32320;BME280;19080;51.750;5.888;2024-03-25T05:52:31;100582.53;;;2.61;100.00
32320;BME280;19080;51.750;5.888;2024-03-25T05:54:57;100563.25;;;2.59;100.00
32320;BME280;19080;51.750;5.888;2024-03-25T05:57:23;100585.63;;;2.72;100.00
32320;BME280;19080;51.750;5.888;2024-03-25T05:59:49;100576.03;;;2.73;100.00
32320;BME280;19080;51.750;5.888;2024-03-25T06:02:14;100547.66;;;2.63;100.00
32320;BME280;19080;51.750;5.888;2024-03-25T06:04:40;100587.78;;;2.82;100.00
32320;BME280;19080;51.750;5.888;2024-03-25T06:07:06;100576.41;;;2.82;100.00
32320;BME280;19080;51.750;5.888;2024-03-25T06:09:32;100570.03;;;2.96;100.00
32320;BME280;19080;51.750;5.888;2024-03-25T06:11:58;100564.91;;;2.99;100.00
32320;BME280;19080;51.750;5.888;2024-03-25T06:14:24;100577.69;;;3.12;100.00
32320;BME280;19080;51.750;5.888;2024-03-25T06:16:49;100564.63;;;3.14;100.00
32320;BME280;19080;51.750;5.888;2024-03-25T06:19:15;100566.53;;;3.18;100.00
32320;BME280;19080;51.750;5.888;2024-03-25T06:21:41;100560.00;;;3.29;100.00
32320;BME280;19080;51.750;5.888;2024-03-25T06:24:08;100551.34;;;3.32;100.00
32320;BME280;19080;51.750;5.888;2024-03-25T06:26:34;100561.25;;;3.39;100.00
32320;BME280;19080;51.750;5.888;2024-03-25T06:29:01;100566.81;;;3.48;100.00
32320;BME280;19080;51.750;5.888;2024-03-25T06:31:28;100563.72;;;3.58;100.00
32320;BME280;19080;51.750;5.888;2024-03-25T06:34:20;100533.69;;;3.74;100.00
32320;BME280;19080;51.750;5.888;2024-03-25T06:36:48;100527.25;;;3.88;100.00
32320;BME280;19080;51.750;5.888;2024-03-25T06:39:14;100564.44;;;4.24;100.00
32320;BME280;19080;51.750;5.888;2024-03-25T06:41:41;100559.00;;;4.43;100.00
32320;BME280;19080;51.750;5.888;2024-03-25T06:44:07;100546.06;;;4.49;100.00
32320;BME280;19080;51.750;5.888;2024-03-25T06:46:33;100537.66;;;5.40;100.00
32320;BME280;19080;51.750;5.888;2024-03-25T06:48:59;100524.34;;;6.92;100.00
32320;BME280;19080;51.750;5.888;2024-03-25T06:51:25;100555.97;;;8.99;100.00
32320;BME280;19080;51.750;5.888;2024-03-25T06:53:52;100499.56;;;10.33;100.00
32320;BME280;19080;51.750;5.888;2024-03-25T06:56:18;100511.16;;;11.58;100.00
32320;BME280;19080;51.750;5.888;2024-03-25T06:58:43;100532.88;;;12.77;100.00
32320;BME280;19080;51.750;5.888;2024-03-25T07:01:10;100515.13;;;13.07;100.00
32320;BME280;19080;51.750;5.888;2024-03-25T07:03:39;100530.94;;;14.01;100.00
32320;BME280;19080;51.750;5.888;2024-03-25T07:06:05;100550.34;;;14.40;100.00
32320;BME280;19080;51.750;5.888;2024-03-25T07:08:31;100541.41;;;14.53;100.00
32320;BME280;19080;51.750;5.888;2024-03-25T07:10:57;100525.25;;;14.71;100.00
32320;BME280;19080;51.750;5.888;2024-03-25T07:13:23;100548.03;;;15.24;100.00
32320;BME280;19080;51.750;5.888;2024-03-25T07:15:49;100539.09;;;15.25;100.00
32320;BME280;19080;51.750;5.888;2024-03-25T07:18:16;100522.31;;;15.97;100.00
32320;BME280;19080;51.750;5.888;2024-03-25T07:20:43;100532.97;;;16.01;93.37
32320;BME280;19080;51.750;5.888;2024-03-25T07:23:10;100513.13;;;16.17;87.22
32320;BME280;19080;51.750;5.888;2024-03-25T07:25:36;100517.94;;;16.57;78.12
32320;BME280;19080;51.750;5.888;2024-03-25T07:28:03;100533.72;;;16.78;69.68
32320;BME280;19080;51.750;5.888;2024-03-25T07:30:29;100531.13;;;16.74;68.41
32320;BME280;19080;51.750;5.888;2024-03-25T07:32:57;100534.00;;;16.57;68.60
32320;BME280;19080;51.750;5.888;2024-03-25T07:35:23;100536.66;;;16.60;66.19
32320;BME280;19080;51.750;5.888;2024-03-25T07:37:49;100529.44;;;16.67;66.68
32320;BME280;19080;51.750;5.888;2024-03-25T07:40:18;100532.69;;;16.87;65.37
32320;BME280;19080;51.750;5.888;2024-03-25T07:42:44;100531.16;;;17.26;63.42
32320;BME280;19080;51.750;5.888;2024-03-25T07:45:11;100515.47;;;17.51;61.82
32320;BME280;19080;51.750;5.888;2024-03-25T07:47:36;100525.03;;;18.13;59.86
32320;BME280;19080;51.750;5.888;2024-03-25T07:50:03;100538.16;;;18.27;57.96
32320;BME280;19080;51.750;5.888;2024-03-25T07:52:29;100530.66;;;18.43;57.52
32320;BME280;19080;51.750;5.888;2024-03-25T07:54:55;100516.66;;;19.06;55.13
32320;BME280;19080;51.750;5.888;2024-03-25T07:57:21;100503.59;;;18.91;53.95
32320;BME280;19080;51.750;5.888;2024-03-25T07:59:46;100530.47;;;19.26;54.16
32320;BME280;19080;51.750;5.888;2024-03-25T08:02:12;100517.34;;;19.82;52.59
32320;BME280;19080;51.750;5.888;2024-03-25T08:04:38;100511.19;;;19.09;51.73
32320;BME280;19080;51.750;5.888;2024-03-25T08:07:04;100516.38;;;19.52;52.86
32320;BME280;19080;51.750;5.888;2024-03-25T08:09:30;100519.97;;;19.15;51.28
32320;BME280;19080;51.750;5.888;2024-03-25T08:11:56;100528.56;;;19.31;52.35
32320;BME280;19080;51.750;5.888;2024-03-25T08:14:22;100517.38;;;19.46;51.82
32320;BME280;19080;51.750;5.888;2024-03-25T08:16:49;100519.44;;;19.03;51.51
32320;BME280;19080;51.750;5.888;2024-03-25T08:19:15;100502.50;;;19.98;53.71
32320;BME280;19080;51.750;5.888;2024-03-25T08:21:40;100524.56;;;20.12;50.99
32320;BME280;19080;51.750;5.888;2024-03-25T08:24:06;100529.03;;;19.81;50.96
32320;BME280;19080;51.750;5.888;2024-03-25T08:26:32;100522.16;;;20.33;50.11
32320;BME280;19080;51.750;5.888;2024-03-25T08:28:58;100531.63;;;20.77;48.85
32320;BME280;19080;51.750;5.888;2024-03-25T08:31:24;100535.34;;;20.43;48.60
32320;BME280;19080;51.750;5.888;2024-03-25T08:33:50;100527.06;;;21.05;49.94
32320;BME280;19080;51.750;5.888;2024-03-25T08:36:17;100530.63;;;21.34;47.88
32320;BME280;19080;51.750;5.888;2024-03-25T08:38:44;100529.69;;;21.07;47.73
32320;BME280;19080;51.750;5.888;2024-03-25T08:41:10;100530.75;;;21.03;47.86
32320;BME280;19080;51.750;5.888;2024-03-25T08:43:36;100534.41;;;21.55;46.18
32320;BME280;19080;51.750;5.888;2024-03-25T08:46:01;100522.41;;;20.83;45.70
32320;BME280;19080;51.750;5.888;2024-03-25T08:48:29;100507.66;;;20.38;47.17
32320;BME280;19080;51.750;5.888;2024-03-25T08:50:55;100529.34;;;21.18;48.76
32320;BME280;19080;51.750;5.888;2024-03-25T08:53:21;100527.47;;;21.72;45.89
32320;BME280;19080;51.750;5.888;2024-03-25T08:55:48;100525.44;;;21.00;44.39
32320;BME280;19080;51.750;5.888;2024-03-25T08:58:14;100511.47;;;21.41;45.03
32320;BME280;19080;51.750;5.888;2024-03-25T09:00:40;100517.50;;;21.23;45.56
32320;BME280;19080;51.750;5.888;2024-03-25T09:03:06;100514.78;;;21.99;45.52
32320;BME280;19080;51.750;5.888;2024-03-25T09:05:32;100512.56;;;22.57;44.71
32320;BME280;19080;51.750;5.888;2024-03-25T09:07:59;100519.06;;;22.30;43.86
32320;BME280;19080;51.750;5.888;2024-03-25T09:10:25;100517.78;;;22.17;42.27
32320;BME280;19080;51.750;5.888;2024-03-25T09:13:09;100493.41;;;21.43;43.15
32320;BME280;19080;51.750;5.888;2024-03-25T09:15:35;100496.44;;;20.52;45.09
32320;BME280;19080;51.750;5.888;2024-03-25T09:18:01;100506.97;;;20.88;44.94
32320;BME280;19080;51.750;5.888;2024-03-25T09:20:28;100502.72;;;21.85;42.78
32320;BME280;19080;51.750;5.888;2024-03-25T09:22:54;100493.06;;;21.53;43.30
32320;BME280;19080;51.750;5.888;2024-03-25T09:25:20;100481.72;;;21.68;43.56
32320;BME280;19080;51.750;5.888;2024-03-25T09:27:46;100500.44;;;21.97;42.44
32320;BME280;19080;51.750;5.888;2024-03-25T09:30:13;100503.00;;;19.47;43.18
32320;BME280;19080;51.750;5.888;2024-03-25T09:32:42;100504.19;;;18.25;49.10
32320;BME280;19080;51.750;5.888;2024-03-25T09:35:09;100500.31;;;18.78;51.49
32320;BME280;19080;51.750;5.888;2024-03-25T09:37:35;100503.47;;;18.16;49.54
32320;BME280;19080;51.750;5.888;2024-03-25T09:40:02;100500.53;;;18.29;50.39
32320;BME280;19080;51.750;5.888;2024-03-25T09:45:12;100482.78;;;19.98;44.99
32320;BME280;19080;51.750;5.888;2024-03-25T09:47:39;100474.19;;;20.45;45.50
32320;BME280;19080;51.750;5.888;2024-03-25T09:50:06;100473.25;;;18.47;47.25
32320;BME280;19080;51.750;5.888;2024-03-25T09:52:34;100496.69;;;17.51;49.57
32320;BME280;19080;51.750;5.888;2024-03-25T09:55:00;100484.81;;;17.66;52.05
32320;BME280;19080;51.750;5.888;2024-03-25T09:57:26;100455.31;;;18.86;48.94
32320;BME280;19080;51.750;5.888;2024-03-25T09:59:52;100479.09;;;18.26;47.38
32320;BME280;19080;51.750;5.888;2024-03-25T10:02:19;100459.19;;;17.02;48.14
32320;BME280;19080;51.750;5.888;2024-03-25T10:04:46;100465.13;;;16.67;50.87
32320;BME280;19080;51.750;5.888;2024-03-25T10:07:22;100479.97;;;16.87;49.99
32320;BME280;19080;51.750;5.888;2024-03-25T10:09:51;100473.22;;;16.60;52.58
32320;BME280;19080;51.750;5.888;2024-03-25T10:12:17;100478.97;;;16.35;54.92
32320;BME280;19080;51.750;5.888;2024-03-25T10:14:43;100448.72;;;16.26;54.03
32320;BME280;19080;51.750;5.888;2024-03-25T10:17:09;100453.56;;;16.60;51.71
32320;BME280;19080;51.750;5.888;2024-03-25T10:19:35;100459.53;;;17.31;54.12
32320;BME280;19080;51.750;5.888;2024-03-25T10:22:05;100452.50;;;17.72;50.91
32320;BME280;19080;51.750;5.888;2024-03-25T10:24:39;100450.69;;;17.26;50.04
32320;BME280;19080;51.750;5.888;2024-03-25T10:27:06;100444.50;;;18.10;52.41
32320;BME280;19080;51.750;5.888;2024-03-25T10:29:31;100434.16;;;19.39;49.45
32320;BME280;19080;51.750;5.888;2024-03-25T10:32:01;100433.34;;;19.03;47.74
32320;BME280;19080;51.750;5.888;2024-03-25T10:34:27;100442.38;;;19.33;49.30
32320;BME280;19080;51.750;5.888;2024-03-25T10:36:56;100421.94;;;19.26;47.25
32320;BME280;19080;51.750;5.888;2024-03-25T10:39:27;100423.03;;;19.18;48.12
32320;BME280;19080;51.750;5.888;2024-03-25T10:41:57;100427.06;;;19.04;47.54
32320;BME280;19080;51.750;5.888;2024-03-25T10:44:25;100418.09;;;19.36;46.19
32320;BME280;19080;51.750;5.888;2024-03-25T10:47:01;100414.88;;;19.56;46.18
32320;BME280;19080;51.750;5.888;2024-03-25T10:49:57;100421.84;;;18.98;46.82
32320;BME280;19080;51.750;5.888;2024-03-25T10:52:26;100419.31;;;18.92;46.59
32320;BME280;19080;51.750;5.888;2024-03-25T10:54:54;100412.50;;;18.40;47.02
32320;BME280;19080;51.750;5.888;2024-03-25T10:57:20;100412.63;;;18.34;47.19
32320;BME280;19080;51.750;5.888;2024-03-25T10:59:47;100418.50;;;17.71;47.94
32320;BME280;19080;51.750;5.888;2024-03-25T11:02:13;100400.72;;;16.71;48.76
32320;BME280;19080;51.750;5.888;2024-03-25T11:04:41;100402.91;;;15.85;52.45
32320;BME280;19080;51.750;5.888;2024-03-25T11:07:14;100419.06;;;15.76;52.98
32320;BME280;19080;51.750;5.888;2024-03-25T11:09:41;100397.75;;;15.70;54.79
32320;BME280;19080;51.750;5.888;2024-03-25T11:12:11;100408.41;;;15.73;54.50
32320;BME280;19080;51.750;5.888;2024-03-25T11:14:38;100402.63;;;16.62;54.93
32320;BME280;19080;51.750;5.888;2024-03-25T11:17:14;100399.28;;;17.03;51.00
32320;BME280;19080;51.750;5.888;2024-03-25T11:19:41;100377.81;;;17.47;48.94
32320;BME280;19080;51.750;5.888;2024-03-25T11:22:08;100377.03;;;17.85;48.34
32320;BME280;19080;51.750;5.888;2024-03-25T11:24:35;100390.84;;;18.07;47.64
32320;BME280;19080;51.750;5.888;2024-03-25T11:27:08;100400.22;;;17.45;47.75
32320;BME280;19080;51.750;5.888;2024-03-25T11:29:34;100375.31;;;17.81;47.45
32320;BME280;19080;51.750;5.888;2024-03-25T11:32:04;100381.06;;;18.43;45.69
32320;BME280;19080;51.750;5.888;2024-03-25T11:34:31;100378.19;;;18.87;47.97
32320;BME280;19080;51.750;5.888;2024-03-25T11:36:57;100378.59;;;18.71;44.89
32320;BME280;19080;51.750;5.888;2024-03-25T11:39:24;100381.91;;;17.67;46.48
32320;BME280;19080;51.750;5.888;2024-03-25T11:41:51;100386.16;;;16.87;47.30
32320;BME280;19080;51.750;5.888;2024-03-25T11:44:16;100366.94;;;16.04;48.27
32320;BME280;19080;51.750;5.888;2024-03-25T11:46:43;100370.69;;;15.91;50.22
32320;BME280;19080;51.750;5.888;2024-03-25T11:49:15;100371.88;;;15.70;50.41
32320;BME280;19080;51.750;5.888;2024-03-25T11:51:43;100332.97;;;15.45;49.62
32320;BME280;19080;51.750;5.888;2024-03-25T11:54:11;100360.75;;;15.33;51.46
32320;BME280;19080;51.750;5.888;2024-03-25T11:56:37;100348.25;;;16.55;50.48
32320;BME280;19080;51.750;5.888;2024-03-25T11:59:06;100349.78;;;17.61;50.20
32320;BME280;19080;51.750;5.888;2024-03-25T12:01:32;100329.16;;;18.41;46.24
32320;BME280;19080;51.750;5.888;2024-03-25T12:04:10;100323.13;;;19.31;43.57
32320;BME280;19080;51.750;5.888;2024-03-25T12:06:35;100336.03;;;19.50;41.05
32320;BME280;19080;51.750;5.888;2024-03-25T12:09:01;100316.94;;;18.98;42.48
32320;BME280;19080;51.750;5.888;2024-03-25T12:11:46;100334.94;;;18.60;41.43
32320;BME280;19080;51.750;5.888;2024-03-25T12:14:14;100300.19;;;17.80;43.32
32320;BME280;19080;51.750;5.888;2024-03-25T12:16:41;100337.19;;;17.24;44.08
32320;BME280;19080;51.750;5.888;2024-03-25T12:19:07;100323.41;;;16.47;45.53
32320;BME280;19080;51.750;5.888;2024-03-25T12:21:33;100333.72;;;16.17;45.63
32320;BME280;19080;51.750;5.888;2024-03-25T12:23:59;100325.31;;;15.82;46.38
32320;BME280;19080;51.750;5.888;2024-03-25T12:26:25;100307.53;;;16.35;46.42
32320;BME280;19080;51.750;5.888;2024-03-25T12:28:52;100290.91;;;16.14;45.87
32320;BME280;19080;51.750;5.888;2024-03-25T12:31:17;100298.94;;;15.59;48.73
32320;BME280;19080;51.750;5.888;2024-03-25T12:33:44;100304.59;;;15.33;49.20
32320;BME280;19080;51.750;5.888;2024-03-25T12:36:13;100273.41;;;15.93;47.30
32320;BME280;19080;51.750;5.888;2024-03-25T12:38:39;100281.94;;;16.69;46.14
32320;BME280;19080;51.750;5.888;2024-03-25T12:41:09;100269.88;;;16.44;45.21
32320;BME280;19080;51.750;5.888;2024-03-25T12:43:37;100279.44;;;16.58;45.02
32320;BME280;19080;51.750;5.888;2024-03-25T12:46:07;100262.50;;;17.04;44.26
32320;BME280;19080;51.750;5.888;2024-03-25T12:48:35;100267.50;;;17.21;43.67
32320;BME280;19080;51.750;5.888;2024-03-25T12:51:01;100269.84;;;17.36;44.35